To NAV CANADA Home Page Login to a new session Search on AWWS site Feedback and Comments Disclaimer Vers la page française équivalente Tips FAQ What's new on the site To the Forecasts and Observations / NOTAM section To "File a Flight Plan" website Publications and other links Update of the User's profile FIC Telephone Numbers My Weather Data Folder Route Weather Data Regional Weather Data Local Weather Data To the Forecasts and Observations / NOTAM section
Request Generated 04/27/2015 at 07:06:10 UTC . Weather information available at that time is displayed.

METAR/TAF

BURWASH/YT    

METAR CYDB 270700Z AUTO 13007KT 9SM BKN140 OVC160 02/M02 A2952 RMK
SLP027=
METAR CYDB 270600Z AUTO 11007KT 080V160 9SM OVC150 03/M01 A2952 RMK
SLP028=
METAR CYDB 270500Z AUTO 10007KT 9SM FEW110 SCT130 BKN150 03/M01 A2952
RMK SLP029=

TAF CYDB 270538Z 2706/2718 12008KT P6SM SCT120 BKN200
FM271600 12012KT P6SM SKC
RMK FCST BASED ON AUTO OBS. NXT FCST BY 271200Z=
Your time UTC time
Weather data provided by Environment Canada and NAV CANADA